Aviation Digital Data Service (ADDS)

Output produced by METARs form (1906 UTC 27 March 2015)
found at http://aviationweather.gov/adds/metars/
 
KBGR 271720Z 2718/2818 32007KT P6SM BKN040 
     FM280800 02006KT P6SM VCSH OVC030 
     FM281200 02010KT 6SM -SHSN OVC025